sensor_id;sensor_type;location;lat;lon;timestamp;temperature;humidity
73955;DHT22;62306;52.516;13.290;2023-03-01T00:01:29;0.70;85.90
73955;DHT22;62306;52.516;13.290;2023-03-01T00:03:57;0.70;85.80
73955;DHT22;62306;52.516;13.290;2023-03-01T00:06:25;0.70;85.90
73955;DHT22;62306;52.516;13.290;2023-03-01T00:08:52;0.80;86.00
73955;DHT22;62306;52.516;13.290;2023-03-01T00:11:21;0.90;85.60
73955;DHT22;62306;52.516;13.290;2023-03-01T00:13:49;0.90;84.80
73955;DHT22;62306;52.516;13.290;2023-03-01T00:16:19;0.80;85.40
73955;DHT22;62306;52.516;13.290;2023-03-01T00:18:48;0.80;85.90
73955;DHT22;62306;52.516;13.290;2023-03-01T00:21:14;0.80;85.80
73955;DHT22;62306;52.516;13.290;2023-03-01T00:23:41;0.90;85.60
73955;DHT22;62306;52.516;13.290;2023-03-01T00:26:10;0.90;85.20
73955;DHT22;62306;52.516;13.290;2023-03-01T00:28:38;0.90;85.10
73955;DHT22;62306;52.516;13.290;2023-03-01T00:31:06;0.90;84.90
73955;DHT22;62306;52.516;13.290;2023-03-01T00:33:33;0.90;85.40
73955;DHT22;62306;52.516;13.290;2023-03-01T00:36:03;0.90;84.80
73955;DHT22;62306;52.516;13.290;2023-03-01T00:38:30;0.80;85.00
73955;DHT22;62306;52.516;13.290;2023-03-01T00:41:03;0.80;85.10
73955;DHT22;62306;52.516;13.290;2023-03-01T00:43:30;0.90;85.00
73955;DHT22;62306;52.516;13.290;2023-03-01T00:46:02;0.90;84.90
73955;DHT22;62306;52.516;13.290;2023-03-01T00:48:29;0.90;85.10
73955;DHT22;62306;52.516;13.290;2023-03-01T00:50:55;0.80;85.10
73955;DHT22;62306;52.516;13.290;2023-03-01T00:53:24;0.80;84.90
73955;DHT22;62306;52.516;13.290;2023-03-01T00:55:51;0.80;85.10
73955;DHT22;62306;52.516;13.290;2023-03-01T00:58:18;0.80;85.20
73955;DHT22;62306;52.516;13.290;2023-03-01T01:00:44;0.70;85.60
73955;DHT22;62306;52.516;13.290;2023-03-01T01:03:11;0.60;86.50
73955;DHT22;62306;52.516;13.290;2023-03-01T01:05:38;0.60;87.20
73955;DHT22;62306;52.516;13.290;2023-03-01T01:08:05;0.50;88.10
73955;DHT22;62306;52.516;13.290;2023-03-01T01:10:34;0.30;88.80
73955;DHT22;62306;52.516;13.290;2023-03-01T01:13:01;0.30;89.00
73955;DHT22;62306;52.516;13.290;2023-03-01T01:15:28;0.30;88.70
73955;DHT22;62306;52.516;13.290;2023-03-01T01:17:55;0.30;88.80
73955;DHT22;62306;52.516;13.290;2023-03-01T01:20:22;0.30;89.30
73955;DHT22;62306;52.516;13.290;2023-03-01T01:22:49;0.30;89.50
73955;DHT22;62306;52.516;13.290;2023-03-01T01:25:16;0.30;89.60
73955;DHT22;62306;52.516;13.290;2023-03-01T01:27:45;0.20;90.00
73955;DHT22;62306;52.516;13.290;2023-03-01T01:30:12;0.20;89.70
73955;DHT22;62306;52.516;13.290;2023-03-01T01:32:39;0.30;89.60
73955;DHT22;62306;52.516;13.290;2023-03-01T01:35:07;0.30;89.50
73955;DHT22;62306;52.516;13.290;2023-03-01T01:37:34;0.40;89.50
73955;DHT22;62306;52.516;13.290;2023-03-01T01:40:01;0.30;89.30
73955;DHT22;62306;52.516;13.290;2023-03-01T01:42:30;0.30;90.00
73955;DHT22;62306;52.516;13.290;2023-03-01T01:45:32;0.30;90.00
73955;DHT22;62306;52.516;13.290;2023-03-01T01:48:03;0.30;89.50
73955;DHT22;62306;52.516;13.290;2023-03-01T01:50:31;0.30;89.30
73955;DHT22;62306;52.516;13.290;2023-03-01T01:53:06;0.30;89.50
73955;DHT22;62306;52.516;13.290;2023-03-01T01:55:37;0.20;89.50
73955;DHT22;62306;52.516;13.290;2023-03-01T01:58:07;0.20;89.60
73955;DHT22;62306;52.516;13.290;2023-03-01T02:00:37;0.20;89.70
73955;DHT22;62306;52.516;13.290;2023-03-01T02:03:08;0.20;89.60
73955;DHT22;62306;52.516;13.290;2023-03-01T02:05:39;0.20;89.90
73955;DHT22;62306;52.516;13.290;2023-03-01T02:08:10;0.20;89.90
73955;DHT22;62306;52.516;13.290;2023-03-01T02:10:38;0.20;90.00
73955;DHT22;62306;52.516;13.290;2023-03-01T02:13:06;0.20;89.90
73955;DHT22;62306;52.516;13.290;2023-03-01T02:15:36;0.20;89.90
73955;DHT22;62306;52.516;13.290;2023-03-01T02:18:04;0.20;90.00
73955;DHT22;62306;52.516;13.290;2023-03-01T02:20:35;0.10;90.40
73955;DHT22;62306;52.516;13.290;2023-03-01T02:23:04;0.00;90.80
73955;DHT22;62306;52.516;13.290;2023-03-01T02:25:38;0.00;90.60
73955;DHT22;62306;52.516;13.290;2023-03-01T02:30:40;0.00;90.90
73955;DHT22;62306;52.516;13.290;2023-03-01T02:33:28;0.10;90.50
73955;DHT22;62306;52.516;13.290;2023-03-01T02:35:59;0.20;90.30
73955;DHT22;62306;52.516;13.290;2023-03-01T02:38:28;0.20;90.00
73955;DHT22;62306;52.516;13.290;2023-03-01T02:40:57;0.10;90.30
73955;DHT22;62306;52.516;13.290;2023-03-01T02:43:27;0.10;90.20
73955;DHT22;62306;52.516;13.290;2023-03-01T02:45:59;0.20;90.20
73955;DHT22;62306;52.516;13.290;2023-03-01T02:48:26;0.10;90.30
73955;DHT22;62306;52.516;13.290;2023-03-01T02:51:04;0.00;90.80
73955;DHT22;62306;52.516;13.290;2023-03-01T02:53:38;-0.10;90.90
73955;DHT22;62306;52.516;13.290;2023-03-01T02:56:07;-0.20;91.00
73955;DHT22;62306;52.516;13.290;2023-03-01T02:58:38;-0.20;91.00
73955;DHT22;62306;52.516;13.290;2023-03-01T03:01:14;-0.20;91.20
73955;DHT22;62306;52.516;13.290;2023-03-01T03:03:41;-0.10;91.10
73955;DHT22;62306;52.516;13.290;2023-03-01T03:06:09;-0.10;91.00
73955;DHT22;62306;52.516;13.290;2023-03-01T03:08:35;-0.20;91.10
73955;DHT22;62306;52.516;13.290;2023-03-01T03:11:03;-0.20;91.20
73955;DHT22;62306;52.516;13.290;2023-03-01T03:13:30;-0.20;91.30
73955;DHT22;62306;52.516;13.290;2023-03-01T03:15:58;-0.20;91.40
73955;DHT22;62306;52.516;13.290;2023-03-01T03:18:26;-0.20;91.20
73955;DHT22;62306;52.516;13.290;2023-03-01T03:20:53;-0.20;91.10
73955;DHT22;62306;52.516;13.290;2023-03-01T03:23:21;-0.20;91.40
73955;DHT22;62306;52.516;13.290;2023-03-01T03:25:49;-0.30;91.50
73955;DHT22;62306;52.516;13.290;2023-03-01T03:28:16;-0.20;91.50
73955;DHT22;62306;52.516;13.290;2023-03-01T03:30:44;-0.30;91.40
73955;DHT22;62306;52.516;13.290;2023-03-01T03:33:12;-0.20;91.30
73955;DHT22;62306;52.516;13.290;2023-03-01T03:35:43;-0.20;91.00
73955;DHT22;62306;52.516;13.290;2023-03-01T03:38:11;-0.20;91.00
73955;DHT22;62306;52.516;13.290;2023-03-01T03:40:44;-0.20;90.70
73955;DHT22;62306;52.516;13.290;2023-03-01T03:43:12;-0.20;90.70
73955;DHT22;62306;52.516;13.290;2023-03-01T03:45:40;-0.20;91.00
73955;DHT22;62306;52.516;13.290;2023-03-01T03:48:08;-0.30;91.50
73955;DHT22;62306;52.516;13.290;2023-03-01T03:50:36;-0.30;91.40
73955;DHT22;62306;52.516;13.290;2023-03-01T03:53:06;-0.40;91.50
73955;DHT22;62306;52.516;13.290;2023-03-01T03:55:33;-0.40;91.50
73955;DHT22;62306;52.516;13.290;2023-03-01T03:58:02;-0.40;91.50
73955;DHT22;62306;52.516;13.290;2023-03-01T04:00:32;-0.30;91.30
73955;DHT22;62306;52.516;13.290;2023-03-01T04:03:00;-0.30;91.40
73955;DHT22;62306;52.516;13.290;2023-03-01T04:05:27;-0.30;91.40
73955;DHT22;62306;52.516;13.290;2023-03-01T04:07:54;-0.40;91.60
73955;DHT22;62306;52.516;13.290;2023-03-01T04:10:36;-0.40;91.50
73955;DHT22;62306;52.516;13.290;2023-03-01T04:13:03;-0.30;91.40
73955;DHT22;62306;52.516;13.290;2023-03-01T04:15:31;-0.40;91.40
73955;DHT22;62306;52.516;13.290;2023-03-01T04:17:59;-0.50;91.80
73955;DHT22;62306;52.516;13.290;2023-03-01T04:20:28;-0.50;91.90
73955;DHT22;62306;52.516;13.290;2023-03-01T04:22:58;-0.50;92.00
73955;DHT22;62306;52.516;13.290;2023-03-01T04:25:26;-0.50;92.00
73955;DHT22;62306;52.516;13.290;2023-03-01T04:27:54;-0.40;91.70
73955;DHT22;62306;52.516;13.290;2023-03-01T04:30:21;-0.40;91.70
73955;DHT22;62306;52.516;13.290;2023-03-01T04:32:50;-0.50;91.80
73955;DHT22;62306;52.516;13.290;2023-03-01T04:35:17;-0.40;91.70
73955;DHT22;62306;52.516;13.290;2023-03-01T04:37:44;-0.30;91.40
73955;DHT22;62306;52.516;13.290;2023-03-01T04:40:12;-0.30;91.30
73955;DHT22;62306;52.516;13.290;2023-03-01T04:42:42;-0.30;91.10
73955;DHT22;62306;52.516;13.290;2023-03-01T04:45:10;-0.30;91.20
73955;DHT22;62306;52.516;13.290;2023-03-01T04:47:40;-0.30;91.10
73955;DHT22;62306;52.516;13.290;2023-03-01T04:50:09;-0.30;91.10
73955;DHT22;62306;52.516;13.290;2023-03-01T04:52:36;-0.30;91.10
73955;DHT22;62306;52.516;13.290;2023-03-01T04:55:03;-0.40;91.20
73955;DHT22;62306;52.516;13.290;2023-03-01T04:57:31;-0.50;91.50
73955;DHT22;62306;52.516;13.290;2023-03-01T04:59:58;-0.50;91.60
73955;DHT22;62306;52.516;13.290;2023-03-01T05:02:26;-0.50;91.70
73955;DHT22;62306;52.516;13.290;2023-03-01T05:04:53;-0.50;91.40
73955;DHT22;62306;52.516;13.290;2023-03-01T05:07:23;-0.40;91.30
73955;DHT22;62306;52.516;13.290;2023-03-01T05:09:51;-0.40;91.20
73955;DHT22;62306;52.516;13.290;2023-03-01T05:12:19;-0.40;91.20
73955;DHT22;62306;52.516;13.290;2023-03-01T05:14:46;-0.30;91.10
73955;DHT22;62306;52.516;13.290;2023-03-01T05:17:13;-0.30;91.10
73955;DHT22;62306;52.516;13.290;2023-03-01T05:19:41;-0.30;91.10
73955;DHT22;62306;52.516;13.290;2023-03-01T05:22:08;-0.40;91.20
73955;DHT22;62306;52.516;13.290;2023-03-01T05:24:35;-0.50;91.40
73955;DHT22;62306;52.516;13.290;2023-03-01T05:27:05;-0.50;91.80
73955;DHT22;62306;52.516;13.290;2023-03-01T05:29:32;-0.50;92.20
73955;DHT22;62306;52.516;13.290;2023-03-01T05:32:01;-0.50;92.60
73955;DHT22;62306;52.516;13.290;2023-03-01T05:34:31;-0.50;92.80
73955;DHT22;62306;52.516;13.290;2023-03-01T05:37:00;-0.60;93.00
73955;DHT22;62306;52.516;13.290;2023-03-01T05:39:29;-0.70;93.20
73955;DHT22;62306;52.516;13.290;2023-03-01T05:41:58;-0.80;93.50
73955;DHT22;62306;52.516;13.290;2023-03-01T05:44:27;-0.80;93.60
73955;DHT22;62306;52.516;13.290;2023-03-01T05:46:54;-0.80;93.90
73955;DHT22;62306;52.516;13.290;2023-03-01T05:49:22;-0.80;93.80
73955;DHT22;62306;52.516;13.290;2023-03-01T05:51:51;-0.80;93.90
73955;DHT22;62306;52.516;13.290;2023-03-01T05:54:20;-0.80;94.00
73955;DHT22;62306;52.516;13.290;2023-03-01T05:56:48;-0.80;93.80
73955;DHT22;62306;52.516;13.290;2023-03-01T05:59:15;-0.70;93.80
73955;DHT22;62306;52.516;13.290;2023-03-01T06:01:42;-0.70;93.60
73955;DHT22;62306;52.516;13.290;2023-03-01T06:04:09;-0.70;93.80
73955;DHT22;62306;52.516;13.290;2023-03-01T06:06:36;-0.70;93.60
73955;DHT22;62306;52.516;13.290;2023-03-01T06:09:03;-0.70;93.50
73955;DHT22;62306;52.516;13.290;2023-03-01T06:11:31;-0.60;93.70
73955;DHT22;62306;52.516;13.290;2023-03-01T06:13:59;-0.70;93.80
73955;DHT22;62306;52.516;13.290;2023-03-01T06:16:26;-0.70;94.00
73955;DHT22;62306;52.516;13.290;2023-03-01T06:18:53;-0.70;94.10
73955;DHT22;62306;52.516;13.290;2023-03-01T06:21:20;-0.60;93.90
73955;DHT22;62306;52.516;13.290;2023-03-01T06:23:47;-0.40;93.30
73955;DHT22;62306;52.516;13.290;2023-03-01T06:26:14;-0.30;93.10
73955;DHT22;62306;52.516;13.290;2023-03-01T06:28:42;-0.30;93.20
73955;DHT22;62306;52.516;13.290;2023-03-01T06:31:11;-0.40;93.20
73955;DHT22;62306;52.516;13.290;2023-03-01T06:33:38;-0.30;93.00
73955;DHT22;62306;52.516;13.290;2023-03-01T06:36:06;-0.20;92.70
73955;DHT22;62306;52.516;13.290;2023-03-01T06:38:33;-0.20;92.90
73955;DHT22;62306;52.516;13.290;2023-03-01T06:41:00;-0.20;92.80
73955;DHT22;62306;52.516;13.290;2023-03-01T06:43:27;-0.10;92.30
73955;DHT22;62306;52.516;13.290;2023-03-01T06:45:55;0.00;92.30
73955;DHT22;62306;52.516;13.290;2023-03-01T06:48:22;0.10;92.20
73955;DHT22;62306;52.516;13.290;2023-03-01T06:50:49;0.10;92.30
73955;DHT22;62306;52.516;13.290;2023-03-01T06:53:16;0.20;92.40
73955;DHT22;62306;52.516;13.290;2023-03-01T06:55:43;0.30;92.30
73955;DHT22;62306;52.516;13.290;2023-03-01T06:58:10;0.30;92.30
73955;DHT22;62306;52.516;13.290;2023-03-01T07:00:37;0.30;92.20
73955;DHT22;62306;52.516;13.290;2023-03-01T07:03:08;0.40;92.20
73955;DHT22;62306;52.516;13.290;2023-03-01T07:05:35;0.50;91.90
73955;DHT22;62306;52.516;13.290;2023-03-01T07:08:02;0.60;92.00
73955;DHT22;62306;52.516;13.290;2023-03-01T07:10:29;0.60;92.30
73955;DHT22;62306;52.516;13.290;2023-03-01T07:12:56;0.70;92.10
73955;DHT22;62306;52.516;13.290;2023-03-01T07:15:24;0.80;91.70
73955;DHT22;62306;52.516;13.290;2023-03-01T07:17:51;0.80;91.40
73955;DHT22;62306;52.516;13.290;2023-03-01T07:20:20;0.90;91.20
73955;DHT22;62306;52.516;13.290;2023-03-01T07:22:50;1.00;90.80
73955;DHT22;62306;52.516;13.290;2023-03-01T07:25:17;1.20;90.40
73955;DHT22;62306;52.516;13.290;2023-03-01T07:27:44;1.40;89.50
73955;DHT22;62306;52.516;13.290;2023-03-01T07:30:15;1.50;89.20
73955;DHT22;62306;52.516;13.290;2023-03-01T07:32:42;1.70;87.80
73955;DHT22;62306;52.516;13.290;2023-03-01T07:35:10;1.90;86.60
73955;DHT22;62306;52.516;13.290;2023-03-01T07:37:39;2.00;86.70
73955;DHT22;62306;52.516;13.290;2023-03-01T07:40:07;2.10;86.40
73955;DHT22;62306;52.516;13.290;2023-03-01T07:42:34;2.40;84.80
73955;DHT22;62306;52.516;13.290;2023-03-01T07:45:01;2.60;83.20
73955;DHT22;62306;52.516;13.290;2023-03-01T07:47:28;2.70;82.00
73955;DHT22;62306;52.516;13.290;2023-03-01T07:49:55;2.90;79.60
73955;DHT22;62306;52.516;13.290;2023-03-01T07:52:22;3.00;79.90
73955;DHT22;62306;52.516;13.290;2023-03-01T07:54:50;3.10;79.30
73955;DHT22;62306;52.516;13.290;2023-03-01T07:57:17;3.30;76.80
73955;DHT22;62306;52.516;13.290;2023-03-01T07:59:44;3.30;76.20
73955;DHT22;62306;52.516;13.290;2023-03-01T08:02:11;3.40;76.70
73955;DHT22;62306;52.516;13.290;2023-03-01T08:04:40;3.60;75.80
73955;DHT22;62306;52.516;13.290;2023-03-01T08:07:07;3.80;73.40
73955;DHT22;62306;52.516;13.290;2023-03-01T08:09:35;4.00;73.10
73955;DHT22;62306;52.516;13.290;2023-03-01T08:12:04;4.00;72.80
73955;DHT22;62306;52.516;13.290;2023-03-01T08:14:31;4.00;72.40
73955;DHT22;62306;52.516;13.290;2023-03-01T08:16:58;4.10;71.40
73955;DHT22;62306;52.516;13.290;2023-03-01T08:19:25;4.20;70.80
73955;DHT22;62306;52.516;13.290;2023-03-01T08:21:53;4.20;71.20
73955;DHT22;62306;52.516;13.290;2023-03-01T08:24:20;4.30;71.60
73955;DHT22;62306;52.516;13.290;2023-03-01T08:26:48;4.50;71.90
73955;DHT22;62306;52.516;13.290;2023-03-01T08:29:16;4.80;70.50
73955;DHT22;62306;52.516;13.290;2023-03-01T08:31:43;5.00;68.90
73955;DHT22;62306;52.516;13.290;2023-03-01T08:34:11;5.10;67.90
73955;DHT22;62306;52.516;13.290;2023-03-01T08:36:41;5.20;67.60
73955;DHT22;62306;52.516;13.290;2023-03-01T08:39:09;5.20;66.70
73955;DHT22;62306;52.516;13.290;2023-03-01T08:41:36;5.30;66.60
73955;DHT22;62306;52.516;13.290;2023-03-01T08:44:04;5.50;65.00
73955;DHT22;62306;52.516;13.290;2023-03-01T08:46:35;5.70;63.40
73955;DHT22;62306;52.516;13.290;2023-03-01T08:49:04;5.90;61.50
73955;DHT22;62306;52.516;13.290;2023-03-01T08:51:32;6.00;59.70
73955;DHT22;62306;52.516;13.290;2023-03-01T08:54:02;6.00;60.10
73955;DHT22;62306;52.516;13.290;2023-03-01T08:56:29;5.90;59.40
73955;DHT22;62306;52.516;13.290;2023-03-01T08:58:56;5.80;60.50
73955;DHT22;62306;52.516;13.290;2023-03-01T09:01:23;5.80;60.60
73955;DHT22;62306;52.516;13.290;2023-03-01T09:03:51;5.80;60.10
73955;DHT22;62306;52.516;13.290;2023-03-01T09:06:18;5.90;59.90
73955;DHT22;62306;52.516;13.290;2023-03-01T09:08:47;6.00;59.30
73955;DHT22;62306;52.516;13.290;2023-03-01T09:11:16;6.00;59.10
73955;DHT22;62306;52.516;13.290;2023-03-01T09:13:43;6.10;57.90
73955;DHT22;62306;52.516;13.290;2023-03-01T09:16:11;6.10;57.20
73955;DHT22;62306;52.516;13.290;2023-03-01T09:18:38;6.10;56.80
73955;DHT22;62306;52.516;13.290;2023-03-01T09:21:09;6.10;56.30
73955;DHT22;62306;52.516;13.290;2023-03-01T09:23:37;6.20;56.00
73955;DHT22;62306;52.516;13.290;2023-03-01T09:26:04;6.20;57.30
73955;DHT22;62306;52.516;13.290;2023-03-01T09:28:32;6.20;57.10
73955;DHT22;62306;52.516;13.290;2023-03-01T09:30:59;6.40;58.00
73955;DHT22;62306;52.516;13.290;2023-03-01T09:33:27;6.60;56.60
73955;DHT22;62306;52.516;13.290;2023-03-01T09:35:57;6.70;55.50
73955;DHT22;62306;52.516;13.290;2023-03-01T09:38:25;6.70;55.80
73955;DHT22;62306;52.516;13.290;2023-03-01T09:40:52;6.70;55.10
73955;DHT22;62306;52.516;13.290;2023-03-01T09:43:23;6.70;54.50
73955;DHT22;62306;52.516;13.290;2023-03-01T09:45:53;6.90;55.40
73955;DHT22;62306;52.516;13.290;2023-03-01T09:48:24;6.90;55.00
73955;DHT22;62306;52.516;13.290;2023-03-01T09:50:52;7.10;54.60
73955;DHT22;62306;52.516;13.290;2023-03-01T09:53:21;7.20;52.90
73955;DHT22;62306;52.516;13.290;2023-03-01T09:55:54;7.30;53.70
73955;DHT22;62306;52.516;13.290;2023-03-01T09:58:31;7.40;54.60
73955;DHT22;62306;52.516;13.290;2023-03-01T10:01:10;7.50;52.30
73955;DHT22;62306;52.516;13.290;2023-03-01T10:03:43;7.60;52.10
73955;DHT22;62306;52.516;13.290;2023-03-01T10:06:15;7.70;51.80
73955;DHT22;62306;52.516;13.290;2023-03-01T10:08:45;7.60;51.90
73955;DHT22;62306;52.516;13.290;2023-03-01T10:11:21;7.60;51.40
73955;DHT22;62306;52.516;13.290;2023-03-01T10:13:55;7.40;51.90
73955;DHT22;62306;52.516;13.290;2023-03-01T10:16:27;7.50;51.80
73955;DHT22;62306;52.516;13.290;2023-03-01T10:18:59;7.60;51.50
73955;DHT22;62306;52.516;13.290;2023-03-01T10:21:28;7.50;51.80
73955;DHT22;62306;52.516;13.290;2023-03-01T10:23:59;7.50;51.80
73955;DHT22;62306;52.516;13.290;2023-03-01T10:26:44;7.30;51.70
73955;DHT22;62306;52.516;13.290;2023-03-01T10:29:13;7.40;52.60
73955;DHT22;62306;52.516;13.290;2023-03-01T10:31:42;7.40;53.60
73955;DHT22;62306;52.516;13.290;2023-03-01T10:34:13;7.20;53.80
73955;DHT22;62306;52.516;13.290;2023-03-01T10:36:47;7.20;51.30
73955;DHT22;62306;52.516;13.290;2023-03-01T10:39:15;7.30;50.10
73955;DHT22;62306;52.516;13.290;2023-03-01T10:42:05;7.40;50.40
73955;DHT22;62306;52.516;13.290;2023-03-01T10:44:38;7.60;50.40
73955;DHT22;62306;52.516;13.290;2023-03-01T10:47:16;7.60;50.10
73955;DHT22;62306;52.516;13.290;2023-03-01T10:49:56;7.60;48.60
73955;DHT22;62306;52.516;13.290;2023-03-01T10:52:32;7.50;49.50
73955;DHT22;62306;52.516;13.290;2023-03-01T10:55:03;7.60;50.20
73955;DHT22;62306;52.516;13.290;2023-03-01T10:57:37;7.70;50.00
73955;DHT22;62306;52.516;13.290;2023-03-01T11:00:20;7.90;49.50
73955;DHT22;62306;52.516;13.290;2023-03-01T11:02:49;8.10;49.10
73955;DHT22;62306;52.516;13.290;2023-03-01T11:05:21;8.10;48.10
73955;DHT22;62306;52.516;13.290;2023-03-01T11:07:51;8.10;48.30
73955;DHT22;62306;52.516;13.290;2023-03-01T11:10:20;8.10;48.20
73955;DHT22;62306;52.516;13.290;2023-03-01T11:12:50;8.10;47.60
73955;DHT22;62306;52.516;13.290;2023-03-01T11:15:26;8.00;48.30
73955;DHT22;62306;52.516;13.290;2023-03-01T11:17:54;8.10;48.00
73955;DHT22;62306;52.516;13.290;2023-03-01T11:20:29;8.10;46.40
73955;DHT22;62306;52.516;13.290;2023-03-01T11:22:59;8.10;45.80
73955;DHT22;62306;52.516;13.290;2023-03-01T11:25:32;7.80;45.50
73955;DHT22;62306;52.516;13.290;2023-03-01T11:28:03;7.90;45.90
73955;DHT22;62306;52.516;13.290;2023-03-01T11:30:33;7.90;45.50
73955;DHT22;62306;52.516;13.290;2023-03-01T11:33:17;8.10;45.10
73955;DHT22;62306;52.516;13.290;2023-03-01T11:35:53;7.90;45.60
73955;DHT22;62306;52.516;13.290;2023-03-01T11:38:23;8.10;45.20
73955;DHT22;62306;52.516;13.290;2023-03-01T11:40:54;8.20;44.70
73955;DHT22;62306;52.516;13.290;2023-03-01T11:43:32;8.30;44.60
73955;DHT22;62306;52.516;13.290;2023-03-01T11:49:32;8.70;42.90
73955;DHT22;62306;52.516;13.290;2023-03-01T11:52:08;8.90;42.90
73955;DHT22;62306;52.516;13.290;2023-03-01T11:54:55;8.80;41.70
73955;DHT22;62306;52.516;13.290;2023-03-01T11:57:39;8.70;42.50
73955;DHT22;62306;52.516;13.290;2023-03-01T12:00:30;8.80;42.70
73955;DHT22;62306;52.516;13.290;2023-03-01T12:03:28;8.90;42.00
73955;DHT22;62306;52.516;13.290;2023-03-01T12:09:06;9.00;42.20
73955;DHT22;62306;52.516;13.290;2023-03-01T12:11:45;9.00;42.50
73955;DHT22;62306;52.516;13.290;2023-03-01T12:14:37;9.30;42.50
73955;DHT22;62306;52.516;13.290;2023-03-01T12:17:23;9.30;41.50
73955;DHT22;62306;52.516;13.290;2023-03-01T12:20:06;9.40;40.70
73955;DHT22;62306;52.516;13.290;2023-03-01T12:22:39;9.30;39.80
73955;DHT22;62306;52.516;13.290;2023-03-01T12:25:21;9.40;41.20
73955;DHT22;62306;52.516;13.290;2023-03-01T12:28:09;9.60;40.40
73955;DHT22;62306;52.516;13.290;2023-03-01T12:33:45;9.70;39.30
73955;DHT22;62306;52.516;13.290;2023-03-01T12:36:30;9.60;40.00
73955;DHT22;62306;52.516;13.290;2023-03-01T12:39:09;9.70;39.00
73955;DHT22;62306;52.516;13.290;2023-03-01T12:41:47;9.40;40.40
73955;DHT22;62306;52.516;13.290;2023-03-01T12:44:28;9.60;39.90
73955;DHT22;62306;52.516;13.290;2023-03-01T12:47:07;9.80;39.20
73955;DHT22;62306;52.516;13.290;2023-03-01T12:49:42;9.70;38.60
73955;DHT22;62306;52.516;13.290;2023-03-01T12:52:15;9.60;39.10
73955;DHT22;62306;52.516;13.290;2023-03-01T12:54:44;9.70;39.70
73955;DHT22;62306;52.516;13.290;2023-03-01T12:57:15;10.00;38.30
73955;DHT22;62306;52.516;13.290;2023-03-01T12:59:56;9.50;39.40
73955;DHT22;62306;52.516;13.290;2023-03-01T13:02:33;9.60;39.20
73955;DHT22;62306;52.516;13.290;2023-03-01T13:05:19;9.50;39.60
73955;DHT22;62306;52.516;13.290;2023-03-01T13:07:55;9.60;38.70
73955;DHT22;62306;52.516;13.290;2023-03-01T13:10:31;9.90;39.00
73955;DHT22;62306;52.516;13.290;2023-03-01T13:13:14;10.00;39.30
73955;DHT22;62306;52.516;13.290;2023-03-01T13:15:45;10.20;37.80
73955;DHT22;62306;52.516;13.290;2023-03-01T13:18:31;10.30;36.80
73955;DHT22;62306;52.516;13.290;2023-03-01T13:21:02;10.40;34.70
73955;DHT22;62306;52.516;13.290;2023-03-01T13:23:33;10.30;34.70
73955;DHT22;62306;52.516;13.290;2023-03-01T13:26:07;10.00;33.40
73955;DHT22;62306;52.516;13.290;2023-03-01T13:28:52;9.60;34.70
73955;DHT22;62306;52.516;13.290;2023-03-01T13:31:56;9.60;35.00
73955;DHT22;62306;52.516;13.290;2023-03-01T13:34:59;9.80;34.80
73955;DHT22;62306;52.516;13.290;2023-03-01T13:37:36;9.90;34.70
73955;DHT22;62306;52.516;13.290;2023-03-01T13:42:52;9.90;34.00
73955;DHT22;62306;52.516;13.290;2023-03-01T13:45:21;10.00;34.20
73955;DHT22;62306;52.516;13.290;2023-03-01T13:47:53;10.00;34.10
73955;DHT22;62306;52.516;13.290;2023-03-01T13:50:25;9.80;34.20
73955;DHT22;62306;52.516;13.290;2023-03-01T13:52:58;9.70;35.10
73955;DHT22;62306;52.516;13.290;2023-03-01T13:55:34;9.70;34.90
73955;DHT22;62306;52.516;13.290;2023-03-01T13:58:16;9.50;35.20
73955;DHT22;62306;52.516;13.290;2023-03-01T14:00:45;9.60;35.40
73955;DHT22;62306;52.516;13.290;2023-03-01T14:03:13;9.70;34.40
73955;DHT22;62306;52.516;13.290;2023-03-01T14:05:43;9.50;34.50
73955;DHT22;62306;52.516;13.290;2023-03-01T14:08:21;9.30;34.50
73955;DHT22;62306;52.516;13.290;2023-03-01T14:10:58;9.30;33.90
73955;DHT22;62306;52.516;13.290;2023-03-01T14:13:36;9.30;34.20
73955;DHT22;62306;52.516;13.290;2023-03-01T14:16:21;9.30;34.80
73955;DHT22;62306;52.516;13.290;2023-03-01T14:18:55;9.40;35.10
73955;DHT22;62306;52.516;13.290;2023-03-01T14:21:26;9.60;36.40
73955;DHT22;62306;52.516;13.290;2023-03-01T14:23:54;9.70;35.40
73955;DHT22;62306;52.516;13.290;2023-03-01T14:26:22;9.70;37.10
73955;DHT22;62306;52.516;13.290;2023-03-01T14:28:50;9.50;36.50
73955;DHT22;62306;52.516;13.290;2023-03-01T14:31:32;9.60;37.00
73955;DHT22;62306;52.516;13.290;2023-03-01T14:34:01;9.60;36.80
73955;DHT22;62306;52.516;13.290;2023-03-01T14:36:29;9.50;37.40
73955;DHT22;62306;52.516;13.290;2023-03-01T14:38:57;9.60;37.40
73955;DHT22;62306;52.516;13.290;2023-03-01T14:41:32;9.60;38.10
73955;DHT22;62306;52.516;13.290;2023-03-01T14:44:03;9.70;38.10
73955;DHT22;62306;52.516;13.290;2023-03-01T14:46:34;9.60;38.20
73955;DHT22;62306;52.516;13.290;2023-03-01T14:49:04;9.50;38.90
73955;DHT22;62306;52.516;13.290;2023-03-01T14:51:36;9.40;39.40
73955;DHT22;62306;52.516;13.290;2023-03-01T14:54:18;9.40;38.80
73955;DHT22;62306;52.516;13.290;2023-03-01T14:56:46;9.40;39.40
73955;DHT22;62306;52.516;13.290;2023-03-01T14:59:13;9.30;39.00
73955;DHT22;62306;52.516;13.290;2023-03-01T15:01:41;9.20;39.50
73955;DHT22;62306;52.516;13.290;2023-03-01T15:04:11;9.20;39.90
73955;DHT22;62306;52.516;13.290;2023-03-01T15:06:39;9.00;39.70
73955;DHT22;62306;52.516;13.290;2023-03-01T15:09:13;9.10;39.90
73955;DHT22;62306;52.516;13.290;2023-03-01T15:11:40;8.90;40.20
73955;DHT22;62306;52.516;13.290;2023-03-01T15:14:38;8.80;41.80
73955;DHT22;62306;52.516;13.290;2023-03-01T15:17:20;8.80;42.20
73955;DHT22;62306;52.516;13.290;2023-03-01T15:19:49;8.80;42.90
73955;DHT22;62306;52.516;13.290;2023-03-01T15:22:21;8.80;42.60
73955;DHT22;62306;52.516;13.290;2023-03-01T15:24:51;8.70;42.50
73955;DHT22;62306;52.516;13.290;2023-03-01T15:27:20;8.70;43.40
73955;DHT22;62306;52.516;13.290;2023-03-01T15:29:49;8.70;43.10
73955;DHT22;62306;52.516;13.290;2023-03-01T15:32:27;8.60;42.80
73955;DHT22;62306;52.516;13.290;2023-03-01T15:34:58;8.70;43.30
73955;DHT22;62306;52.516;13.290;2023-03-01T15:37:43;8.70;43.20
73955;DHT22;62306;52.516;13.290;2023-03-01T15:40:22;8.50;42.30
73955;DHT22;62306;52.516;13.290;2023-03-01T15:42:57;8.40;43.00
73955;DHT22;62306;52.516;13.290;2023-03-01T15:45:26;8.40;42.80
73955;DHT22;62306;52.516;13.290;2023-03-01T15:47:56;8.40;42.90
73955;DHT22;62306;52.516;13.290;2023-03-01T17:00:53;7.00;49.80
73955;DHT22;62306;52.516;13.290;2023-03-01T17:03:21;7.00;50.00
73955;DHT22;62306;52.516;13.290;2023-03-01T17:05:49;7.00;50.30
73955;DHT22;62306;52.516;13.290;2023-03-01T17:08:16;7.00;50.60
73955;DHT22;62306;52.516;13.290;2023-03-01T17:10:43;7.00;51.00
73955;DHT22;62306;52.516;13.290;2023-03-01T17:13:12;6.80;51.80
73955;DHT22;62306;52.516;13.290;2023-03-01T17:15:39;6.90;52.20